Airport View

Enter AWOS ICAO identifier for current METAR.

ex. KFNL

KJGG 191835Z AUTO 00000KT 10SM CLR 29/24 A2979 RMK AO1

19 Jun 2019 18:46

Frequency: 120.625

Phone: 757-220-8810

Other Area AWOS: KFAF - KPHF - KFYJ - KLFI

TAF KFAF 191800Z 1918/2024 21009KT 9999 SCT018 BKN100 QNH2971INS BECMG 1918/1919 21010G15KT 8000 -SHRA BKN020 BKN100 QNH2970INS TEMPO 1920/2001 4800 -TSRA BKN015CB BECMG 2001/2002 VRB06KT 9999 NSW BKN020 QNH2963INS BECMG 2013/2014 23012G18KT 9999 BKN030 QNH2956INS BECMG 2021/2022 23015G22KT 8000 -SHRA BKN020 QNH2955INS TX33/2018Z TN22/2010Z LAST NO AMDS AFT 2003 NEXT 2010